createdAt,value
2022-09-17T00:00:05.672Z,19.40
2022-09-17T00:00:32.140Z,19.42
2022-09-17T00:00:55.461Z,19.45
2022-09-17T00:01:24.251Z,19.40
2022-09-17T00:01:45.964Z,19.46
2022-09-17T00:02:07.575Z,19.40
2022-09-17T00:02:30.229Z,19.42
2022-09-17T00:02:55.587Z,19.42
2022-09-17T00:03:17.385Z,19.39
2022-09-17T00:03:38.977Z,19.43
2022-09-17T00:04:04.657Z,19.40
2022-09-17T00:04:27.912Z,19.40
2022-09-17T00:04:50.624Z,19.37
2022-09-17T00:05:13.737Z,19.36
2022-09-17T00:05:37.619Z,19.38
2022-09-17T00:05:59.657Z,19.39
2022-09-17T00:06:23.397Z,19.37
2022-09-17T00:06:45.207Z,19.38
2022-09-17T00:07:10.279Z,19.39
2022-09-17T00:07:31.925Z,19.42
2022-09-17T00:07:54.566Z,19.41
2022-09-17T00:08:16.239Z,19.42
2022-09-17T00:08:40.001Z,19.41
2022-09-17T00:09:02.800Z,19.41
2022-09-17T00:09:24.369Z,19.43
2022-09-17T00:09:48.392Z,19.45
2022-09-17T00:10:10.094Z,19.45
2022-09-17T00:10:33.173Z,19.46
2022-09-17T00:10:54.912Z,19.45
2022-09-17T00:11:18.511Z,19.46
2022-09-17T00:12:01.409Z,19.47
2022-09-17T00:12:23.888Z,19.50
2022-09-17T00:12:45.817Z,19.48
2022-09-17T00:13:08.313Z,19.51
2022-09-17T00:13:30.258Z,19.51
2022-09-17T00:13:54.092Z,19.44
2022-09-17T00:14:17.192Z,19.37
2022-09-17T00:14:40.381Z,19.42
2022-09-17T00:15:02.393Z,19.41
2022-09-17T00:15:27.273Z,19.36
2022-09-17T00:15:48.885Z,19.24
2022-09-17T00:16:11.248Z,19.35
2022-09-17T00:16:36.920Z,19.35
2022-09-17T00:17:01.891Z,19.36
2022-09-17T00:17:24.693Z,19.38
2022-09-17T00:17:46.246Z,19.36
2022-09-17T00:18:07.935Z,19.37
2022-09-17T00:18:29.661Z,19.35
2022-09-17T00:18:52.282Z,19.37
2022-09-17T00:19:18.423Z,19.38
2022-09-17T00:19:40.048Z,19.39
2022-09-17T00:20:03.147Z,19.38
2022-09-17T00:20:25.105Z,19.40
2022-09-17T00:20:47.394Z,19.40
2022-09-17T00:21:17.091Z,19.44
2022-09-17T00:21:41.861Z,19.42
2022-09-17T00:22:03.466Z,19.47
2022-09-17T00:22:25.148Z,19.48
2022-09-17T00:22:47.727Z,19.50
2022-09-17T00:23:10.876Z,19.49
2022-09-17T00:23:32.479Z,19.45
2022-09-17T00:23:55.807Z,19.44
2022-09-17T00:24:18.859Z,19.44
2022-09-17T00:24:41.589Z,19.42
2022-09-17T00:25:03.670Z,19.48
2022-09-17T00:25:25.592Z,19.48
2022-09-17T00:25:47.160Z,19.50
2022-09-17T00:26:08.765Z,19.43
2022-09-17T00:26:31.983Z,19.47
2022-09-17T00:26:54.834Z,19.49
2022-09-17T00:27:19.232Z,19.52
2022-09-17T00:27:40.850Z,19.53
2022-09-17T00:28:03.649Z,19.55
2022-09-17T00:28:25.753Z,19.54
2022-09-17T00:28:50.798Z,19.56
2022-09-17T00:29:12.396Z,19.56
2022-09-17T00:29:34.002Z,19.58
2022-09-17T00:29:55.545Z,19.57
2022-09-17T00:30:18.096Z,19.59
2022-09-17T00:30:40.720Z,19.60
2022-09-17T00:31:07.100Z,19.62
2022-09-17T00:31:30.214Z,19.61
2022-09-17T00:31:52.773Z,19.59
2022-09-17T00:32:14.507Z,19.56
2022-09-17T00:32:36.328Z,19.53
2022-09-17T00:32:58.383Z,19.52
2022-09-17T00:33:21.056Z,19.54
2022-09-17T00:34:40.311Z,19.57
2022-09-17T00:35:01.936Z,19.57
2022-09-17T00:35:23.719Z,19.58
2022-09-17T00:35:45.484Z,19.57
2022-09-17T00:36:08.685Z,19.59
2022-09-17T00:36:31.105Z,19.60
2022-09-17T00:36:52.681Z,19.58
2022-09-17T00:37:15.435Z,19.60
2022-09-17T00:37:37.977Z,19.58
2022-09-17T00:37:59.831Z,19.53
2022-09-17T00:38:21.372Z,19.55
2022-09-17T00:38:43.337Z,19.53
2022-09-17T00:39:07.713Z,19.44
2022-09-17T00:39:29.289Z,19.49
2022-09-17T00:39:51.263Z,19.50
2022-09-17T00:40:12.935Z,19.48
2022-09-17T00:40:35.774Z,19.54
2022-09-17T00:40:57.423Z,19.54
2022-09-17T00:41:19.880Z,19.55
2022-09-17T00:41:43.617Z,19.58
2022-09-17T00:42:23.474Z,19.56
2022-09-17T00:42:45.267Z,19.57
2022-09-17T00:43:11.584Z,19.60
2022-09-17T00:43:40.000Z,19.56
2022-09-17T00:44:24.306Z,19.55
2022-09-17T00:44:49.497Z,19.53
2022-09-17T00:45:12.057Z,19.58
2022-09-17T00:45:33.675Z,19.60
2022-09-17T00:45:56.616Z,19.60
2022-09-17T00:46:25.372Z,19.58
2022-09-17T00:46:48.456Z,19.57
2022-09-17T00:47:16.583Z,19.59
2022-09-17T00:47:42.008Z,19.45
2022-09-17T00:48:06.216Z,19.57
2022-09-17T00:48:27.852Z,19.58
2022-09-17T00:48:52.034Z,19.59
2022-09-17T00:49:17.025Z,19.60
2022-09-17T00:49:40.047Z,19.63
2022-09-17T00:50:06.616Z,19.62
2022-09-17T00:50:31.626Z,19.64
2022-09-17T00:50:55.076Z,19.61
2022-09-17T00:51:20.960Z,19.61
2022-09-17T00:51:47.708Z,19.62
2022-09-17T00:52:15.328Z,19.60
2022-09-17T00:52:41.676Z,19.60
2022-09-17T00:53:07.704Z,19.59
2022-09-17T00:53:30.596Z,19.61
2022-09-17T00:53:53.234Z,19.62
2022-09-17T00:54:15.033Z,19.58
2022-09-17T00:54:38.604Z,19.61
2022-09-17T00:55:07.907Z,19.58
2022-09-17T00:55:34.396Z,19.63
2022-09-17T00:56:01.896Z,19.65
2022-09-17T00:56:28.667Z,19.66
2022-09-17T00:56:51.542Z,19.64
2022-09-17T00:57:14.197Z,19.64
2022-09-17T00:57:36.503Z,19.64
2022-09-17T00:58:01.045Z,19.65
2022-09-17T00:58:24.308Z,19.62
2022-09-17T00:58:47.635Z,19.64
2022-09-17T00:59:10.368Z,19.62
2022-09-17T00:59:32.556Z,19.63
2022-09-17T00:59:54.402Z,19.62
2022-09-17T01:00:18.094Z,19.63
2022-09-17T01:00:40.788Z,19.53
2022-09-17T01:01:02.491Z,19.55
2022-09-17T01:01:24.253Z,19.49
2022-09-17T01:01:46.436Z,19.52
2022-09-17T01:02:11.361Z,19.56
2022-09-17T01:02:48.070Z,19.56
2022-09-17T01:03:09.706Z,19.58
2022-09-17T01:03:33.158Z,19.60
2022-09-17T01:03:54.729Z,19.60
2022-09-17T01:04:17.088Z,19.61
2022-09-17T01:04:39.997Z,19.61
2022-09-17T01:05:01.757Z,19.62
2022-09-17T01:05:39.930Z,19.63
2022-09-17T01:06:10.642Z,19.64
2022-09-17T01:06:36.766Z,19.57
2022-09-17T01:07:07.464Z,19.61
2022-09-17T01:08:07.656Z,19.57
2022-09-17T01:08:39.276Z,19.62
2022-09-17T01:09:14.179Z,19.58
2022-09-17T01:09:46.223Z,19.56
2022-09-17T01:10:21.139Z,19.59
2022-09-17T01:11:00.060Z,19.60
2022-09-17T01:11:47.452Z,19.54
2022-09-17T01:12:23.257Z,19.61
2022-09-17T01:12:59.342Z,19.58
2022-09-17T01:13:35.456Z,19.61
2022-09-17T01:14:11.019Z,19.62
2022-09-17T01:14:45.331Z,19.51
2022-09-17T01:15:23.111Z,19.54
2022-09-17T01:15:54.792Z,19.51
2022-09-17T01:16:20.595Z,19.54
2022-09-17T01:16:57.037Z,19.55
2022-09-17T01:17:27.325Z,19.57
2022-09-17T01:17:59.558Z,19.58
2022-09-17T01:18:33.342Z,19.53
2022-09-17T01:19:08.923Z,19.52
2022-09-17T01:20:07.428Z,19.53
2022-09-17T01:21:05.824Z,19.56
2022-09-17T01:21:39.754Z,19.49
2022-09-17T01:22:07.291Z,19.59
2022-09-17T01:22:34.024Z,19.62
2022-09-17T01:23:16.108Z,19.59
2022-09-17T01:24:12.772Z,19.59
2022-09-17T01:24:51.263Z,19.56
2022-09-17T01:25:24.847Z,19.57
2022-09-17T01:25:59.436Z,19.57
2022-09-17T01:26:48.873Z,19.59
2022-09-17T01:27:46.260Z,19.61
2022-09-17T01:28:40.462Z,19.57
2022-09-17T01:29:13.804Z,19.55
2022-09-17T01:29:54.650Z,19.64
2022-09-17T01:31:02.221Z,19.65
2022-09-17T01:31:36.101Z,19.55
2022-09-17T01:32:07.347Z,19.57
2022-09-17T01:32:33.322Z,19.60
2022-09-17T01:33:02.761Z,19.55
2022-09-17T01:33:30.690Z,19.60
2022-09-17T01:34:01.559Z,19.59
2022-09-17T01:34:31.797Z,19.61
2022-09-17T01:34:59.448Z,19.54
2022-09-17T01:35:27.028Z,19.59
2022-09-17T01:35:53.274Z,19.61
2022-09-17T01:36:27.240Z,19.59
2022-09-17T01:36:59.976Z,19.60
2022-09-17T01:37:31.002Z,19.62
2022-09-17T01:38:01.097Z,19.64
2022-09-17T01:38:27.784Z,19.63
2022-09-17T01:38:54.731Z,19.64
2022-09-17T01:39:30.146Z,19.65
2022-09-17T01:40:00.746Z,19.60
2022-09-17T01:40:27.457Z,19.63
2022-09-17T01:40:55.798Z,19.60
2022-09-17T01:41:27.408Z,19.59
2022-09-17T01:41:56.492Z,19.59
2022-09-17T01:42:24.748Z,19.53
2022-09-17T01:42:51.986Z,19.54
2022-09-17T01:43:22.106Z,19.58
2022-09-17T01:43:52.422Z,19.57
2022-09-17T01:44:21.191Z,19.58
2022-09-17T01:44:50.793Z,19.58
2022-09-17T01:45:17.605Z,19.58
2022-09-17T01:45:44.443Z,19.51
2022-09-17T01:46:12.621Z,19.55
2022-09-17T01:46:40.607Z,19.58
2022-09-17T01:47:06.625Z,19.59
2022-09-17T01:47:35.540Z,19.61
2022-09-17T01:48:00.943Z,19.58
2022-09-17T01:48:27.455Z,19.47
2022-09-17T01:48:56.635Z,19.54
2022-09-17T01:49:25.307Z,19.53
2022-09-17T01:49:48.264Z,19.57
2022-09-17T01:50:13.509Z,19.57
2022-09-17T01:50:41.158Z,19.57
2022-09-17T01:51:08.413Z,19.55
2022-09-17T01:51:40.593Z,19.60
2022-09-17T01:52:03.471Z,19.57
2022-09-17T01:52:28.895Z,19.57
2022-09-17T01:52:53.401Z,19.59
2022-09-17T01:53:18.795Z,19.59
2022-09-17T01:53:45.997Z,19.46
2022-09-17T01:54:14.309Z,19.62
2022-09-17T01:54:42.563Z,19.62
2022-09-17T01:55:08.640Z,19.63
2022-09-17T01:55:35.812Z,19.63
2022-09-17T01:56:00.764Z,19.65
2022-09-17T01:56:27.084Z,19.67
2022-09-17T01:56:55.424Z,19.68
2022-09-17T01:57:23.532Z,19.67
2022-09-17T01:57:51.147Z,19.63
2022-09-17T01:58:17.403Z,19.61
2022-09-17T01:58:44.439Z,19.62
2022-09-17T01:59:12.731Z,19.60
2022-09-17T01:59:38.289Z,19.62
2022-09-17T02:00:04.155Z,19.61
2022-09-17T02:00:34.902Z,19.58
2022-09-17T02:01:01.511Z,19.58
2022-09-17T02:01:27.531Z,19.59
2022-09-17T02:01:53.851Z,19.54
2022-09-17T02:02:22.541Z,19.57
2022-09-17T02:02:48.794Z,19.58
2022-09-17T02:03:16.460Z,19.57
2022-09-17T02:03:42.224Z,19.61
2022-09-17T02:04:09.554Z,19.61
2022-09-17T02:04:38.298Z,19.61
2022-09-17T02:05:05.089Z,19.61
2022-09-17T02:05:30.788Z,19.60
2022-09-17T02:05:55.739Z,19.60
2022-09-17T02:06:23.627Z,19.44
2022-09-17T02:06:50.925Z,19.63
2022-09-17T02:07:20.436Z,19.62
2022-09-17T02:07:51.357Z,19.59
2022-09-17T02:08:18.717Z,19.62
2022-09-17T02:08:51.989Z,19.64
2022-09-17T02:09:17.173Z,19.49
2022-09-17T02:09:44.668Z,19.64
2022-09-17T02:10:11.345Z,19.65
2022-09-17T02:10:37.554Z,19.67
2022-09-17T02:11:05.718Z,19.67
2022-09-17T02:11:29.376Z,19.69
2022-09-17T02:11:55.500Z,19.69
2022-09-17T02:12:24.228Z,19.69
2022-09-17T02:12:52.226Z,19.67
2022-09-17T02:13:16.787Z,19.65
2022-09-17T02:13:43.937Z,19.65
2022-09-17T02:14:10.260Z,19.63
2022-09-17T02:14:39.344Z,19.63
2022-09-17T02:15:05.849Z,19.64
2022-09-17T02:15:33.225Z,19.67
2022-09-17T02:16:00.244Z,19.67
2022-09-17T02:16:27.052Z,19.69
2022-09-17T02:16:53.014Z,19.70
2022-09-17T02:17:22.429Z,19.70
2022-09-17T02:17:50.544Z,19.65
2022-09-17T02:18:23.192Z,19.66
2022-09-17T02:18:50.316Z,19.65
2022-09-17T02:19:19.094Z,19.62
2022-09-17T02:19:41.820Z,19.67
2022-09-17T02:20:04.963Z,19.66
2022-09-17T02:20:35.615Z,19.65
2022-09-17T02:21:08.277Z,19.59
2022-09-17T02:21:38.970Z,19.63
2022-09-17T02:22:03.414Z,19.55
2022-09-17T02:22:31.039Z,19.60
2022-09-17T02:22:57.794Z,19.59
2022-09-17T02:23:26.216Z,19.62
2022-09-17T02:23:57.484Z,19.61
2022-09-17T02:24:24.924Z,19.65
2022-09-17T02:24:54.245Z,19.59
2022-09-17T02:25:31.425Z,19.63
2022-09-17T02:26:01.634Z,19.64
2022-09-17T02:26:25.025Z,19.66
2022-09-17T02:26:54.647Z,19.69
2022-09-17T02:27:26.672Z,19.68
2022-09-17T02:27:56.780Z,19.69
2022-09-17T02:28:25.968Z,19.67
2022-09-17T02:28:51.425Z,19.68
2022-09-17T02:29:22.896Z,19.66
2022-09-17T02:29:44.973Z,19.62
2022-09-17T02:30:07.455Z,19.65
2022-09-17T02:30:29.863Z,19.65
2022-09-17T02:30:52.573Z,19.64
2022-09-17T02:31:14.527Z,19.62
2022-09-17T02:31:37.835Z,19.63
2022-09-17T02:31:59.853Z,19.62
2022-09-17T02:32:22.418Z,19.64
2022-09-17T02:32:44.290Z,19.60
2022-09-17T02:33:09.670Z,19.61
2022-09-17T02:33:34.791Z,19.61
2022-09-17T02:34:01.638Z,19.62
2022-09-17T02:34:27.467Z,19.62
2022-09-17T02:34:49.020Z,19.61
2022-09-17T02:35:13.905Z,19.55
2022-09-17T02:35:37.813Z,19.57
2022-09-17T02:36:00.833Z,19.56
2022-09-17T02:36:23.762Z,19.56
2022-09-17T02:36:46.805Z,19.58
2022-09-17T02:37:08.984Z,19.60
2022-09-17T02:37:31.543Z,19.60
2022-09-17T02:37:53.247Z,19.60
2022-09-17T02:38:22.267Z,19.61
2022-09-17T02:38:45.245Z,19.63
2022-09-17T02:39:09.882Z,19.61
2022-09-17T02:39:31.737Z,19.60
2022-09-17T02:39:53.711Z,19.59
2022-09-17T02:40:18.501Z,19.56
2022-09-17T02:40:48.793Z,19.55
2022-09-17T02:41:17.801Z,19.49
2022-09-17T02:41:49.193Z,19.54
2022-09-17T02:42:22.443Z,19.45
2022-09-17T02:42:59.281Z,19.48
2022-09-17T02:43:28.486Z,19.46
2022-09-17T02:43:55.322Z,19.45
2022-09-17T02:44:27.883Z,19.46
2022-09-17T02:44:58.083Z,19.46
2022-09-17T02:45:33.895Z,19.47
2022-09-17T02:46:10.736Z,19.49
2022-09-17T02:46:57.350Z,19.49
2022-09-17T02:47:52.362Z,19.51
2022-09-17T02:48:27.732Z,19.51
2022-09-17T02:49:14.991Z,19.52
2022-09-17T02:49:55.161Z,19.54
2022-09-17T02:50:44.892Z,19.49
2022-09-17T02:51:22.659Z,19.52
2022-09-17T02:52:19.283Z,19.55
2022-09-17T02:52:54.894Z,19.54
2022-09-17T02:53:31.133Z,19.55
2022-09-17T02:54:05.165Z,19.54
2022-09-17T02:54:36.284Z,19.51
2022-09-17T02:55:08.836Z,19.56
2022-09-17T02:55:38.271Z,19.45
2022-09-17T02:56:08.785Z,19.57
2022-09-17T02:56:46.030Z,19.56
2022-09-17T02:57:16.373Z,19.46
2022-09-17T02:57:41.604Z,19.58
2022-09-17T02:58:15.394Z,19.61
2022-09-17T02:58:44.287Z,19.59
2022-09-17T02:59:16.794Z,19.59
2022-09-17T02:59:47.659Z,19.52
2022-09-17T03:00:14.479Z,19.61
2022-09-17T03:00:36.532Z,19.61
2022-09-17T03:01:04.449Z,19.58
2022-09-17T03:01:40.120Z,19.59
2022-09-17T03:02:09.061Z,19.59
2022-09-17T03:02:35.713Z,19.55
2022-09-17T03:03:01.787Z,19.57
2022-09-17T03:03:32.177Z,19.57
2022-09-17T03:03:56.299Z,19.53
2022-09-17T03:04:22.402Z,19.57
2022-09-17T03:04:46.852Z,19.58
2022-09-17T03:05:09.530Z,19.57
2022-09-17T03:05:31.962Z,19.56
2022-09-17T03:05:56.208Z,19.36
2022-09-17T03:06:18.731Z,19.51
2022-09-17T03:06:40.714Z,19.51
2022-09-17T03:07:08.952Z,19.50
2022-09-17T03:07:32.533Z,19.50
2022-09-17T03:07:55.502Z,19.51
2022-09-17T03:08:18.697Z,19.52
2022-09-17T03:08:42.707Z,19.52
2022-09-17T03:09:05.459Z,19.54
2022-09-17T03:09:27.384Z,19.51
2022-09-17T03:09:50.194Z,19.48
2022-09-17T03:10:12.827Z,19.46
2022-09-17T03:10:35.628Z,19.49
2022-09-17T03:10:57.339Z,19.48
2022-09-17T03:11:18.952Z,19.50
2022-09-17T03:11:41.544Z,19.39
2022-09-17T03:12:03.642Z,19.48
2022-09-17T03:12:26.767Z,19.48
2022-09-17T03:12:48.417Z,19.49
2022-09-17T03:13:10.185Z,19.50
2022-09-17T03:13:32.327Z,19.45
2022-09-17T03:13:54.913Z,19.49
2022-09-17T03:14:18.586Z,19.48
2022-09-17T03:14:41.501Z,19.49
2022-09-17T03:15:06.856Z,19.49
2022-09-17T03:15:32.072Z,19.50
2022-09-17T03:15:54.102Z,19.49
2022-09-17T03:16:18.355Z,19.51
2022-09-17T03:16:40.034Z,19.51
2022-09-17T03:17:04.284Z,19.52
2022-09-17T03:17:28.454Z,19.51
2022-09-17T03:17:53.538Z,19.53
2022-09-17T03:18:16.230Z,19.54
2022-09-17T03:18:37.892Z,19.54
2022-09-17T03:18:59.496Z,19.56
2022-09-17T03:19:22.021Z,19.56
2022-09-17T03:19:43.674Z,19.55
2022-09-17T03:20:07.286Z,19.49
2022-09-17T03:20:28.901Z,19.56
2022-09-17T03:20:51.476Z,19.53
2022-09-17T03:21:13.015Z,19.52
2022-09-17T03:21:34.583Z,19.54
2022-09-17T03:21:56.168Z,19.53
2022-09-17T03:22:18.752Z,19.55
2022-09-17T03:22:40.309Z,19.55
2022-09-17T03:23:01.868Z,19.55
2022-09-17T03:23:23.420Z,19.58
2022-09-17T03:23:47.505Z,19.54
2022-09-17T03:24:10.878Z,19.56
2022-09-17T03:24:32.592Z,19.53
2022-09-17T03:24:54.268Z,19.54
2022-09-17T03:25:17.029Z,19.55
2022-09-17T03:25:38.615Z,19.44
2022-09-17T03:26:00.304Z,19.52
2022-09-17T03:26:21.865Z,19.54
2022-09-17T03:26:44.389Z,19.51
2022-09-17T03:27:05.985Z,19.57
2022-09-17T03:27:27.557Z,19.52
2022-09-17T03:27:49.147Z,19.57
2022-09-17T03:28:11.693Z,19.56
2022-09-17T03:28:33.245Z,19.55
2022-09-17T03:28:54.841Z,19.51
2022-09-17T03:29:16.488Z,19.54
2022-09-17T03:29:39.148Z,19.54
2022-09-17T03:30:00.716Z,19.54
2022-09-17T03:30:22.300Z,19.54
2022-09-17T03:30:44.412Z,19.51
2022-09-17T03:31:06.506Z,19.56
2022-09-17T03:31:29.269Z,19.56
2022-09-17T03:31:51.032Z,19.54
2022-09-17T03:32:14.030Z,19.54
2022-09-17T03:32:35.631Z,19.55
2022-09-17T03:32:58.227Z,19.56
2022-09-17T03:33:19.989Z,19.56
2022-09-17T03:33:41.777Z,19.57
2022-09-17T03:34:03.807Z,19.52
2022-09-17T03:34:29.458Z,19.51
2022-09-17T03:34:51.268Z,19.53
2022-09-17T03:35:13.216Z,19.56
2022-09-17T03:35:34.799Z,19.56
2022-09-17T03:35:57.376Z,19.57
2022-09-17T03:36:20.109Z,19.52
2022-09-17T03:36:41.683Z,19.55
2022-09-17T03:37:03.323Z,19.54
2022-09-17T03:37:24.957Z,19.55
2022-09-17T03:37:47.389Z,19.54
2022-09-17T03:38:09.920Z,19.52
2022-09-17T03:38:34.235Z,19.47
2022-09-17T03:38:56.093Z,19.49
2022-09-17T03:39:17.673Z,19.45
2022-09-17T03:39:40.207Z,19.46
2022-09-17T03:40:02.467Z,19.48
2022-09-17T03:40:24.174Z,19.50
2022-09-17T03:40:57.197Z,19.53
2022-09-17T03:41:18.999Z,19.51
2022-09-17T03:41:41.653Z,19.50
2022-09-17T03:42:03.635Z,19.45
2022-09-17T03:42:26.473Z,19.42
2022-09-17T03:42:48.416Z,19.48
2022-09-17T03:43:11.072Z,19.50
2022-09-17T03:43:32.973Z,19.48
2022-09-17T03:43:55.060Z,19.50
2022-09-17T03:44:19.271Z,19.39
2022-09-17T03:44:45.311Z,19.44
2022-09-17T03:45:08.283Z,19.46
2022-09-17T03:45:29.985Z,19.49
2022-09-17T03:45:51.590Z,19.50
2022-09-17T03:46:14.150Z,19.50
2022-09-17T03:46:35.858Z,19.53
2022-09-17T03:46:58.727Z,19.50
2022-09-17T03:47:21.911Z,19.52
2022-09-17T03:47:43.590Z,19.54
2022-09-17T03:48:06.191Z,19.54
2022-09-17T03:48:29.536Z,19.56
2022-09-17T03:48:51.831Z,19.58
2022-09-17T03:49:13.429Z,19.58
2022-09-17T03:49:35.031Z,19.60
2022-09-17T03:49:57.905Z,19.54
2022-09-17T03:50:20.388Z,19.56
2022-09-17T03:50:43.541Z,19.55
2022-09-17T03:51:05.450Z,19.57
2022-09-17T03:51:27.982Z,19.56
2022-09-17T03:51:49.976Z,19.51
2022-09-17T03:52:11.506Z,19.54
2022-09-17T03:52:33.365Z,19.56
2022-09-17T03:52:56.195Z,19.52
2022-09-17T03:53:17.767Z,19.54
2022-09-17T03:53:39.373Z,19.52
2022-09-17T03:54:01.017Z,19.50
2022-09-17T03:54:22.876Z,19.50
2022-09-17T03:54:45.446Z,19.52
2022-09-17T03:55:07.851Z,19.51
2022-09-17T03:55:29.390Z,19.51
2022-09-17T03:55:51.231Z,19.50
2022-09-17T03:56:14.429Z,19.49
2022-09-17T03:56:36.100Z,19.52
2022-09-17T03:56:59.115Z,19.54
2022-09-17T03:57:20.682Z,19.56
2022-09-17T03:57:43.417Z,19.57
2022-09-17T03:58:05.097Z,19.58
2022-09-17T03:58:28.616Z,19.55
2022-09-17T03:58:50.199Z,19.61
2022-09-17T03:59:15.448Z,19.61
2022-09-17T03:59:37.052Z,19.63
2022-09-17T03:59:58.720Z,19.65
2022-09-17T04:00:20.398Z,19.66
2022-09-17T04:00:42.966Z,19.65
2022-09-17T04:01:06.003Z,19.66
2022-09-17T04:01:29.255Z,19.67
2022-09-17T04:01:51.156Z,19.68
2022-09-17T04:02:12.990Z,19.71
2022-09-17T04:02:37.483Z,19.69
2022-09-17T04:02:59.172Z,19.69
2022-09-17T04:03:22.084Z,19.71
2022-09-17T04:03:45.221Z,19.70
2022-09-17T04:04:07.836Z,19.69
2022-09-17T04:04:29.445Z,19.68
2022-09-17T04:04:52.972Z,19.68
2022-09-17T04:05:14.687Z,19.66
2022-09-17T04:05:37.603Z,19.68
2022-09-17T04:05:59.741Z,19.66
2022-09-17T04:06:21.519Z,19.56
2022-09-17T04:06:44.472Z,19.61
2022-09-17T04:07:06.313Z,19.60
2022-09-17T04:07:29.114Z,19.63
2022-09-17T04:07:50.738Z,19.64
2022-09-17T04:08:12.553Z,19.59
2022-09-17T04:08:34.235Z,19.61
2022-09-17T04:08:56.985Z,19.60
2022-09-17T04:09:18.560Z,19.59
2022-09-17T04:09:40.139Z,19.61
2022-09-17T04:10:02.477Z,19.56
2022-09-17T04:10:25.671Z,19.52
2022-09-17T04:10:48.109Z,19.54
2022-09-17T04:11:10.057Z,19.56
2022-09-17T04:11:32.584Z,19.54
2022-09-17T04:11:54.153Z,19.54
2022-09-17T04:12:16.264Z,19.56
2022-09-17T04:12:38.133Z,19.57
2022-09-17T04:13:00.633Z,19.58
2022-09-17T04:13:22.208Z,19.56
2022-09-17T04:13:44.221Z,19.57
2022-09-17T04:14:05.904Z,19.57
2022-09-17T04:14:28.461Z,19.56
2022-09-17T04:14:50.038Z,19.58
2022-09-17T04:15:12.372Z,19.58
2022-09-17T04:15:33.942Z,19.61
2022-09-17T04:15:55.569Z,19.62
2022-09-17T04:16:18.232Z,19.63
2022-09-17T04:16:39.948Z,19.64
2022-09-17T04:17:01.560Z,19.60
2022-09-17T04:17:23.261Z,19.60
2022-09-17T04:17:46.202Z,19.60
2022-09-17T04:18:08.861Z,19.49
2022-09-17T04:18:30.894Z,19.63
2022-09-17T04:18:52.471Z,19.64
2022-09-17T04:19:14.100Z,19.65
2022-09-17T04:19:36.705Z,19.65
2022-09-17T04:19:58.427Z,19.66
2022-09-17T04:20:19.990Z,19.67
2022-09-17T04:20:42.425Z,19.70
2022-09-17T04:21:04.263Z,19.69
2022-09-17T04:21:26.780Z,19.67
2022-09-17T04:21:48.337Z,19.68
2022-09-17T04:22:10.399Z,19.65
2022-09-17T04:22:32.211Z,19.63
2022-09-17T04:22:54.568Z,19.59
2022-09-17T04:23:17.420Z,19.64
2022-09-17T04:23:39.338Z,19.65
2022-09-17T04:24:01.197Z,19.60
2022-09-17T04:24:22.776Z,19.62
2022-09-17T04:24:45.308Z,19.63
2022-09-17T04:25:08.791Z,19.66
2022-09-17T04:25:31.025Z,19.66
2022-09-17T04:25:52.687Z,19.58
2022-09-17T04:26:16.493Z,19.65
2022-09-17T04:26:38.078Z,19.63
2022-09-17T04:26:59.678Z,19.62
2022-09-17T04:27:21.353Z,19.60
2022-09-17T04:27:43.920Z,19.61
2022-09-17T04:28:06.840Z,19.61
2022-09-17T04:28:28.468Z,19.61
2022-09-17T04:28:50.037Z,19.60
2022-09-17T04:29:11.588Z,19.62
2022-09-17T04:29:34.121Z,19.64
2022-09-17T04:29:55.667Z,19.66
2022-09-17T04:30:17.839Z,19.61
2022-09-17T04:30:39.885Z,19.66
2022-09-17T04:31:02.522Z,19.62
2022-09-17T04:31:24.988Z,19.63
2022-09-17T04:31:47.060Z,19.63
2022-09-17T04:32:09.105Z,19.64
2022-09-17T04:32:34.549Z,19.62
2022-09-17T04:32:58.040Z,19.61
2022-09-17T04:33:19.949Z,19.64
2022-09-17T04:33:41.769Z,19.63
2022-09-17T04:34:03.392Z,19.62
2022-09-17T04:34:25.907Z,19.65
2022-09-17T04:34:47.453Z,19.66
2022-09-17T04:35:09.448Z,19.68
2022-09-17T04:35:31.004Z,19.69
2022-09-17T04:35:54.022Z,19.65
2022-09-17T04:36:15.834Z,19.69
2022-09-17T04:36:38.863Z,19.68
2022-09-17T04:37:00.485Z,19.68
2022-09-17T04:37:25.608Z,19.69
2022-09-17T04:37:53.323Z,19.64
2022-09-17T04:38:18.421Z,19.61
2022-09-17T04:38:41.005Z,19.62
2022-09-17T04:39:02.586Z,19.55
2022-09-17T04:39:24.345Z,19.63
2022-09-17T04:39:46.019Z,19.65
2022-09-17T04:40:09.296Z,19.65
2022-09-17T04:40:36.276Z,19.65
2022-09-17T04:40:57.946Z,19.66
2022-09-17T04:41:19.629Z,19.65
2022-09-17T04:41:41.169Z,19.65
2022-09-17T04:42:02.733Z,19.64
2022-09-17T04:42:25.409Z,19.63
2022-09-17T04:42:49.431Z,19.62
2022-09-17T04:43:11.575Z,19.63
2022-09-17T04:43:33.098Z,19.59
2022-09-17T04:43:55.760Z,19.62
2022-09-17T04:44:17.530Z,19.62
2022-09-17T04:44:39.080Z,19.64
2022-09-17T04:45:00.633Z,19.64
2022-09-17T04:45:22.349Z,19.66
2022-09-17T04:45:47.004Z,19.64
2022-09-17T04:46:08.645Z,19.65
2022-09-17T04:46:31.722Z,19.63
2022-09-17T04:46:54.324Z,19.61
2022-09-17T04:47:15.927Z,19.62
2022-09-17T04:47:39.620Z,19.62
2022-09-17T04:48:02.855Z,19.64
2022-09-17T04:48:25.729Z,19.64
2022-09-17T04:48:47.292Z,19.64
2022-09-17T04:49:08.906Z,19.65
2022-09-17T04:49:35.284Z,19.66
2022-09-17T04:49:56.868Z,19.66
2022-09-17T04:50:19.487Z,19.66
2022-09-17T04:50:41.037Z,19.68
2022-09-17T04:51:02.645Z,19.68
2022-09-17T04:51:24.296Z,19.69
2022-09-17T04:51:46.879Z,19.66
2022-09-17T04:52:08.427Z,19.72
2022-09-17T04:52:31.095Z,19.70
2022-09-17T04:52:52.869Z,19.68
2022-09-17T04:53:14.460Z,19.68
2022-09-17T04:53:36.983Z,19.66
2022-09-17T04:53:58.522Z,19.65
2022-09-17T04:54:20.244Z,19.67
2022-09-17T04:54:41.817Z,19.64
2022-09-17T04:55:04.401Z,19.59
2022-09-17T04:55:27.419Z,19.62
2022-09-17T04:55:48.978Z,19.60
2022-09-17T04:56:10.553Z,19.63
2022-09-17T04:56:32.103Z,19.62
2022-09-17T04:56:54.719Z,19.62
2022-09-17T04:57:16.536Z,19.63
2022-09-17T04:57:38.259Z,19.64
2022-09-17T04:58:00.852Z,19.63
2022-09-17T04:58:22.547Z,19.65
2022-09-17T04:58:44.188Z,19.64
2022-09-17T04:59:06.016Z,19.59
2022-09-17T04:59:27.642Z,19.64
2022-09-17T04:59:50.137Z,19.66
2022-09-17T05:00:14.244Z,19.65
2022-09-17T05:00:35.951Z,19.64
2022-09-17T05:00:57.602Z,19.62
2022-09-17T05:01:20.179Z,19.59
2022-09-17T05:01:43.227Z,19.56
2022-09-17T05:02:06.346Z,19.59
2022-09-17T05:02:28.079Z,19.61
2022-09-17T05:02:51.608Z,19.59
2022-09-17T05:03:15.597Z,19.59
2022-09-17T05:03:37.377Z,19.61
2022-09-17T05:03:59.021Z,19.62
2022-09-17T05:04:20.954Z,19.60
2022-09-17T05:04:42.530Z,19.60
2022-09-17T05:05:05.646Z,19.56
2022-09-17T05:05:27.214Z,19.65
2022-09-17T05:05:48.810Z,19.63
2022-09-17T05:06:10.677Z,19.55
2022-09-17T05:06:34.365Z,19.62
2022-09-17T05:06:57.249Z,19.61
2022-09-17T05:07:18.849Z,19.59
2022-09-17T05:07:41.116Z,19.60
2022-09-17T05:08:04.120Z,19.61
2022-09-17T05:08:25.775Z,19.62
2022-09-17T05:08:47.352Z,19.62
2022-09-17T05:09:08.990Z,19.63
2022-09-17T05:09:31.644Z,19.65
2022-09-17T05:09:53.747Z,19.64
2022-09-17T05:10:17.971Z,19.61
2022-09-17T05:10:40.767Z,19.62
2022-09-17T05:11:03.604Z,19.64
2022-09-17T05:11:26.569Z,19.63
2022-09-17T05:11:50.878Z,19.65
2022-09-17T05:12:15.344Z,19.63
2022-09-17T05:12:37.323Z,19.65
2022-09-17T05:12:59.871Z,19.65
2022-09-17T05:13:22.403Z,19.63
2022-09-17T05:13:43.969Z,19.63
2022-09-17T05:14:05.652Z,19.61
2022-09-17T05:14:28.177Z,19.63
2022-09-17T05:14:49.782Z,19.61
2022-09-17T05:15:11.660Z,19.58
2022-09-17T05:15:33.252Z,19.60
2022-09-17T05:15:56.587Z,19.62
2022-09-17T05:16:18.677Z,19.63
2022-09-17T05:16:40.676Z,19.63
2022-09-17T05:17:02.208Z,19.63
2022-09-17T05:17:24.720Z,19.65
2022-09-17T05:17:46.612Z,19.63
2022-09-17T05:18:08.173Z,19.65
2022-09-17T05:18:31.447Z,19.62
2022-09-17T05:18:54.284Z,19.62
2022-09-17T05:19:16.163Z,19.64
2022-09-17T05:19:37.725Z,19.63
2022-09-17T05:19:59.300Z,19.64
2022-09-17T05:20:22.263Z,19.65
2022-09-17T05:20:43.930Z,19.63
2022-09-17T05:21:06.104Z,19.63
2022-09-17T05:21:27.641Z,19.61
2022-09-17T05:21:49.219Z,19.63
2022-09-17T05:22:11.918Z,19.65
2022-09-17T05:22:33.469Z,19.66
2022-09-17T05:22:55.631Z,19.65
2022-09-17T05:23:17.696Z,19.64
2022-09-17T05:23:39.252Z,19.65
2022-09-17T05:24:02.347Z,19.65